Time;durP1;ratioP1;P1;durP2;ratioP2;P2;SDS_P1;SDS_P2;PMS_P1;PMS_P2;Temp;Humidity;BMP_temperature;BMP_pressure;BME280_temperature;BME280_humidity;BME280_pressure;Samples;Min_cycle;Max_cycle;Signal;HPM_P1;HPM_P2
2021/12/30 00:00:14;;;;;;;1.70;0.63;;;13.60;99.90;;;;;;5008449;28;20545;-69
2021/12/30 00:02:41;;;;;;;2.23;0.70;;;13.60;99.90;;;;;;5008540;28;20560;-69
2021/12/30 00:05:10;;;;;;;1.60;0.60;;;13.60;99.90;;;;;;5008495;28;20442;-69
2021/12/30 00:07:37;;;;;;;2.00;0.97;;;13.60;99.90;;;;;;5008741;28;20494;-71
2021/12/30 00:10:06;;;;;;;1.90;0.70;;;13.60;99.90;;;;;;5007598;28;20979;-68
2021/12/30 00:12:33;;;;;;;2.90;0.80;;;13.60;99.90;;;;;;5007408;28;20455;-69
2021/12/30 00:15:01;;;;;;;2.10;0.70;;;13.60;99.90;;;;;;5006675;28;20525;-69
2021/12/30 00:17:27;;;;;;;1.70;0.77;;;13.60;99.90;;;;;;5013488;28;20510;-69
2021/12/30 00:19:54;;;;;;;1.90;0.70;;;13.60;99.90;;;;;;5008105;28;20906;-70
2021/12/30 00:22:23;;;;;;;1.50;0.60;;;13.50;99.90;;;;;;5007954;28;21066;-70
2021/12/30 00:24:50;;;;;;;2.87;0.77;;;13.50;99.90;;;;;;5007943;28;20963;-71
2021/12/30 00:27:17;;;;;;;2.53;0.70;;;13.60;99.90;;;;;;5008052;28;20476;-70
2021/12/30 00:29:44;;;;;;;2.30;0.80;;;13.70;99.90;;;;;;5007766;28;20848;-70
2021/12/30 00:32:11;;;;;;;2.73;1.00;;;13.70;99.90;;;;;;5007878;28;20447;-71
2021/12/30 00:34:38;;;;;;;6.80;2.13;;;13.70;99.90;;;;;;5000842;28;20476;-70
2021/12/30 00:37:05;;;;;;;2.00;0.90;;;13.80;99.90;;;;;;5008183;28;20470;-70
2021/12/30 00:39:33;;;;;;;2.20;0.97;;;13.80;99.90;;;;;;5007733;28;20450;-70
2021/12/30 00:42:00;;;;;;;4.13;1.20;;;13.80;99.90;;;;;;5007862;28;20496;-71
2021/12/30 00:44:27;;;;;;;3.50;1.00;;;13.80;99.90;;;;;;5006419;28;20450;-70
2021/12/30 00:46:54;;;;;;;2.00;0.97;;;13.80;99.90;;;;;;5014514;28;21054;-70
2021/12/30 00:49:21;;;;;;;5.63;1.10;;;13.80;99.90;;;;;;5013187;28;20561;-71
2021/12/30 00:51:48;;;;;;;3.27;1.10;;;13.80;99.90;;;;;;5006920;28;20450;-71
2021/12/30 00:54:15;;;;;;;2.20;0.93;;;13.80;99.90;;;;;;5008196;28;20465;-71
2021/12/30 00:56:44;;;;;;;3.00;1.10;;;13.70;99.90;;;;;;5007430;28;20561;-71
2021/12/30 00:59:10;;;;;;;5.97;1.50;;;13.80;99.90;;;;;;5008037;28;20450;-73
2021/12/30 01:01:38;;;;;;;3.10;0.77;;;13.80;99.90;;;;;;5009249;28;20537;-72
2021/12/30 01:04:05;;;;;;;2.10;0.97;;;13.70;99.90;;;;;;5009542;28;20509;-72
2021/12/30 01:06:32;;;;;;;2.00;1.00;;;13.70;99.90;;;;;;5009617;28;20474;-71
2021/12/30 01:08:59;;;;;;;4.17;0.90;;;13.60;99.90;;;;;;5010790;28;20442;-73
2021/12/30 01:11:27;;;;;;;4.00;1.10;;;13.60;99.90;;;;;;5011469;28;20445;-73
2021/12/30 01:14:01;;;;;;;2.17;1.23;;;13.60;99.90;;;;;;5011145;28;20439;-72
2021/12/30 01:16:30;;;;;;;2.80;1.00;;;13.50;99.90;;;;;;5011320;28;20535;-72
2021/12/30 01:19:03;;;;;;;2.40;0.80;;;13.40;99.90;;;;;;5011536;28;20549;-71
2021/12/30 01:21:34;;;;;;;3.17;1.00;;;13.50;99.90;;;;;;5010445;28;20505;-71
2021/12/30 01:24:03;;;;;;;2.57;0.97;;;13.40;99.90;;;;;;5011408;28;20482;-70
2021/12/30 01:26:30;;;;;;;2.30;0.90;;;13.50;99.90;;;;;;5010931;28;20553;-72
2021/12/30 01:28:58;;;;;;;2.67;1.00;;;13.50;99.90;;;;;;5010734;28;20528;-71
2021/12/30 01:31:25;;;;;;;2.77;1.20;;;13.50;99.90;;;;;;5011250;28;20453;-71
2021/12/30 01:33:52;;;;;;;2.57;1.10;;;13.50;99.90;;;;;;5010380;28;20550;-71
2021/12/30 01:36:21;;;;;;;2.57;0.80;;;13.50;99.90;;;;;;5010779;28;20474;-72
2021/12/30 01:38:49;;;;;;;2.33;0.90;;;13.60;99.90;;;;;;5010672;28;20446;-72
2021/12/30 01:41:16;;;;;;;2.10;0.90;;;13.60;99.90;;;;;;5010078;28;20987;-71
2021/12/30 01:43:43;;;;;;;2.20;1.10;;;13.60;99.90;;;;;;5010779;28;20474;-71
2021/12/30 01:46:11;;;;;;;1.90;0.90;;;13.70;99.90;;;;;;5010606;28;20569;-71
2021/12/30 01:48:38;;;;;;;4.10;1.47;;;13.70;99.90;;;;;;5010905;28;20485;-72
2021/12/30 01:51:07;;;;;;;3.13;1.13;;;13.60;99.90;;;;;;5010637;28;20607;-73
2021/12/30 01:53:35;;;;;;;3.97;1.13;;;13.60;99.90;;;;;;5011076;28;20442;-72
2021/12/30 01:56:02;;;;;;;2.27;0.80;;;13.60;99.90;;;;;;5010464;28;20550;-73
2021/12/30 01:58:29;;;;;;;3.73;1.20;;;13.60;99.90;;;;;;5011581;28;20452;-72
2021/12/30 02:00:56;;;;;;;4.93;2.10;;;13.60;99.90;;;;;;5017037;28;20549;-72
2021/12/30 02:03:26;;;;;;;2.70;1.03;;;13.60;99.90;;;;;;5016805;28;20493;-71
2021/12/30 02:05:53;;;;;;;3.03;1.10;;;13.60;99.90;;;;;;5016352;28;20472;-73
2021/12/30 02:08:20;;;;;;;2.77;1.00;;;13.60;99.90;;;;;;5016239;28;20478;-72
2021/12/30 02:10:49;;;;;;;2.43;0.90;;;13.50;99.90;;;;;;5017095;28;20442;-72
2021/12/30 02:13:18;;;;;;;3.20;1.53;;;13.50;99.90;;;;;;5011679;28;20451;-72
2021/12/30 02:15:45;;;;;;;2.33;1.10;;;13.50;99.90;;;;;;5010003;28;20464;-73
2021/12/30 02:18:12;;;;;;;2.50;1.27;;;13.50;99.90;;;;;;5009877;28;20850;-72
2021/12/30 02:20:49;;;;;;;2.90;1.00;;;13.50;99.90;;;;;;5011192;28;20461;-72
2021/12/30 02:23:20;;;;;;;3.40;0.93;;;13.40;99.90;;;;;;5012183;28;20492;-72
2021/12/30 02:25:47;;;;;;;3.90;1.10;;;13.40;99.90;;;;;;5010848;28;20454;-71
2021/12/30 02:28:17;;;;;;;2.53;0.80;;;13.40;99.90;;;;;;5009818;28;20557;-72
2021/12/30 02:30:45;;;;;;;3.77;1.20;;;13.50;99.90;;;;;;5010098;28;20443;-71
2021/12/30 02:33:13;;;;;;;2.53;1.00;;;13.50;99.90;;;;;;5011388;28;20528;-71
2021/12/30 02:35:42;;;;;;;3.03;1.33;;;13.60;99.90;;;;;;5016020;28;20461;-71
2021/12/30 02:38:10;;;;;;;4.37;1.20;;;13.60;99.90;;;;;;5017337;28;20454;-71
2021/12/30 02:40:40;;;;;;;3.80;1.50;;;13.60;99.90;;;;;;5014634;28;20953;-72
2021/12/30 02:43:11;;;;;;;2.47;1.10;;;13.60;99.90;;;;;;5015108;28;20582;-72
2021/12/30 02:45:38;;;;;;;3.07;1.13;;;13.60;99.90;;;;;;5014142;28;20533;-73
2021/12/30 02:48:05;;;;;;;3.60;1.47;;;13.60;99.90;;;;;;5013810;28;20542;-72
2021/12/30 02:50:32;;;;;;;4.70;1.50;;;13.50;99.90;;;;;;5014325;28;20456;-72
2021/12/30 02:53:00;;;;;;;2.93;1.00;;;13.40;99.90;;;;;;5014331;28;20446;-71
2021/12/30 02:55:27;;;;;;;6.17;1.30;;;13.30;99.90;;;;;;5013485;28;20830;-72
2021/12/30 02:57:54;;;;;;;3.53;0.97;;;13.30;99.90;;;;;;5013528;28;20904;-73
2021/12/30 03:00:21;;;;;;;2.60;0.80;;;13.40;99.90;;;;;;5014057;28;20454;-72
2021/12/30 03:02:48;;;;;;;3.03;1.20;;;13.50;99.90;;;;;;5013618;28;20489;-71
2021/12/30 03:05:20;;;;;;;2.40;0.97;;;13.50;99.90;;;;;;5013079;28;20460;-73
2021/12/30 03:07:47;;;;;;;2.23;0.90;;;13.60;99.90;;;;;;5013389;28;20470;-72
2021/12/30 03:10:18;;;;;;;2.33;1.00;;;13.60;99.90;;;;;;5013640;28;20553;-73
2021/12/30 03:12:45;;;;;;;2.80;0.87;;;13.70;99.90;;;;;;5013327;28;20446;-73
2021/12/30 03:15:13;;;;;;;2.57;0.70;;;13.80;99.90;;;;;;5013708;28;20450;-72
2021/12/30 03:17:41;;;;;;;2.20;1.00;;;13.80;99.90;;;;;;5013652;28;20477;-72
2021/12/30 03:20:10;;;;;;;2.30;0.90;;;13.80;99.90;;;;;;5013843;28;20514;-72
2021/12/30 03:22:37;;;;;;;6.70;1.83;;;13.80;99.90;;;;;;5013172;28;21043;-72
2021/12/30 03:25:06;;;;;;;3.40;0.90;;;13.80;99.90;;;;;;5012661;28;20615;-72
2021/12/30 03:27:35;;;;;;;3.30;0.97;;;13.70;99.90;;;;;;5013358;28;20474;-72
2021/12/30 03:30:04;;;;;;;3.20;0.80;;;13.70;99.90;;;;;;5013305;28;20472;-72
2021/12/30 03:32:30;;;;;;;2.10;0.90;;;13.70;99.90;;;;;;5013450;28;20541;-72
2021/12/30 03:34:57;;;;;;;2.70;0.97;;;13.70;99.90;;;;;;5012313;28;20956;-71
2021/12/30 03:37:24;;;;;;;2.33;1.07;;;13.80;99.90;;;;;;5013174;28;20470;-72
2021/12/30 03:39:51;;;;;;;2.17;0.70;;;13.80;99.90;;;;;;5012985;28;20458;-73
2021/12/30 03:42:18;;;;;;;2.20;0.80;;;13.80;99.90;;;;;;5012758;28;20964;-71
2021/12/30 03:44:48;;;;;;;2.37;0.97;;;13.90;99.90;;;;;;5012050;28;20486;-72
2021/12/30 03:47:18;;;;;;;1.87;0.77;;;13.90;99.90;;;;;;5013401;28;20573;-73
2021/12/30 03:49:46;;;;;;;1.80;0.70;;;13.90;99.90;;;;;;5012463;28;20811;-72
2021/12/30 03:52:19;;;;;;;3.00;1.03;;;13.90;99.90;;;;;;5013086;28;20480;-73
2021/12/30 03:54:45;;;;;;;2.07;0.70;;;13.90;99.90;;;;;;5012314;28;20542;-73
2021/12/30 03:57:13;;;;;;;1.73;0.70;;;14.00;99.90;;;;;;5012947;28;20548;-72
2021/12/30 03:59:40;;;;;;;2.77;1.00;;;14.00;99.90;;;;;;5012683;28;20435;-71
2021/12/30 04:02:08;;;;;;;1.60;0.70;;;13.90;99.90;;;;;;5012519;28;20956;-72
2021/12/30 04:04:35;;;;;;;2.00;0.70;;;13.90;99.90;;;;;;5012433;28;20498;-72
2021/12/30 04:07:02;;;;;;;2.70;0.80;;;13.90;99.90;;;;;;5012529;28;20553;-72
2021/12/30 04:09:29;;;;;;;2.13;1.10;;;13.90;99.90;;;;;;5012811;28;20525;-72
2021/12/30 04:11:56;;;;;;;1.80;0.90;;;13.90;99.90;;;;;;5013111;28;20860;-72
2021/12/30 04:14:26;;;;;;;2.57;0.83;;;13.90;99.90;;;;;;5013082;28;20434;-72
2021/12/30 04:16:52;;;;;;;2.73;0.80;;;13.80;99.90;;;;;;5011846;28;20520;-73
2021/12/30 04:19:21;;;;;;;2.80;0.80;;;13.80;99.90;;;;;;5012678;28;20452;-72
2021/12/30 04:21:53;;;;;;;3.60;0.80;;;13.80;99.90;;;;;;5012744;28;20441;-71
2021/12/30 04:24:20;;;;;;;3.67;0.80;;;13.80;99.90;;;;;;5012973;28;20569;-72
2021/12/30 04:26:47;;;;;;;3.70;0.67;;;13.80;99.90;;;;;;5011781;28;20477;-73
2021/12/30 04:29:14;;;;;;;1.90;0.70;;;13.80;99.90;;;;;;5012380;28;20808;-71
2021/12/30 04:31:41;;;;;;;1.77;0.70;;;13.80;99.90;;;;;;5011735;28;20453;-72
2021/12/30 04:34:07;;;;;;;2.33;0.87;;;13.70;99.90;;;;;;5011766;28;20457;-72
2021/12/30 04:36:36;;;;;;;1.90;0.90;;;13.60;99.90;;;;;;5012020;28;21285;-72
2021/12/30 04:39:03;;;;;;;3.10;1.00;;;13.50;99.90;;;;;;5012218;28;20446;-74
2021/12/30 04:41:30;;;;;;;3.57;1.00;;;13.40;99.90;;;;;;5015099;28;20457;-72
2021/12/30 04:43:57;;;;;;;2.50;1.00;;;13.30;99.90;;;;;;5019703;28;20478;-74
2021/12/30 04:46:24;;;;;;;2.37;0.80;;;13.20;99.90;;;;;;5020037;28;20469;-73
2021/12/30 04:48:51;;;;;;;2.57;0.87;;;13.10;99.90;;;;;;5019533;28;20453;-72
2021/12/30 04:51:18;;;;;;;3.20;1.20;;;13.10;99.90;;;;;;5019010;28;20518;-72
2021/12/30 04:53:47;;;;;;;2.67;0.90;;;13.00;99.90;;;;;;5019676;28;20457;-73
2021/12/30 04:56:14;;;;;;;2.67;0.80;;;12.90;99.90;;;;;;5019497;28;20544;-72
2021/12/30 04:58:41;;;;;;;2.80;1.07;;;12.80;99.90;;;;;;5019927;28;20522;-72
2021/12/30 05:01:08;;;;;;;2.30;1.00;;;12.80;99.90;;;;;;5018490;28;20457;-72
2021/12/30 05:03:35;;;;;;;2.27;0.80;;;12.80;99.90;;;;;;5017455;28;20554;-72
2021/12/30 05:06:02;;;;;;;2.10;1.30;;;12.70;99.90;;;;;;5019748;28;21003;-72
2021/12/30 05:08:29;;;;;;;2.30;0.90;;;12.70;99.90;;;;;;5015981;28;20481;-72
2021/12/30 05:10:57;;;;;;;3.13;1.00;;;12.70;99.90;;;;;;5011380;28;20446;-73
2021/12/30 05:13:24;;;;;;;3.33;0.80;;;12.70;99.90;;;;;;5011199;28;20443;-70
2021/12/30 05:15:51;;;;;;;4.30;1.07;;;12.70;99.90;;;;;;5010591;28;20486;-71
2021/12/30 05:18:20;;;;;;;2.73;0.90;;;12.70;99.90;;;;;;5011167;28;20967;-73
2021/12/30 05:20:47;;;;;;;2.83;0.90;;;12.60;99.90;;;;;;5010936;28;20450;-73
2021/12/30 05:23:14;;;;;;;2.00;0.90;;;12.60;99.90;;;;;;5011252;28;20457;-72
2021/12/30 05:25:40;;;;;;;2.67;1.10;;;12.60;99.90;;;;;;5010338;28;20456;-71
2021/12/30 05:28:09;;;;;;;2.00;0.90;;;12.60;99.90;;;;;;5011278;28;20469;-71
2021/12/30 05:30:36;;;;;;;2.03;0.90;;;12.60;99.90;;;;;;5010540;28;20825;-73
2021/12/30 05:33:03;;;;;;;2.00;0.87;;;12.60;99.90;;;;;;5010808;28;20849;-71
2021/12/30 05:35:30;;;;;;;2.17;1.00;;;12.60;99.90;;;;;;5010536;28;20468;-72
2021/12/30 05:37:58;;;;;;;3.47;1.20;;;12.60;99.90;;;;;;5011036;28;20826;-72
2021/12/30 05:40:25;;;;;;;4.10;0.90;;;12.60;99.90;;;;;;5010708;28;20462;-72
2021/12/30 05:42:52;;;;;;;2.50;1.00;;;12.60;99.90;;;;;;5011065;28;20811;-72
2021/12/30 05:45:21;;;;;;;1.80;0.80;;;12.60;99.90;;;;;;5010794;28;21201;-72
2021/12/30 05:47:50;;;;;;;2.23;1.00;;;12.50;99.90;;;;;;5010609;28;20472;-73
2021/12/30 05:50:19;;;;;;;2.77;1.33;;;12.50;99.90;;;;;;5010948;28;20456;-73
2021/12/30 05:52:46;;;;;;;2.60;1.10;;;12.50;99.90;;;;;;5010362;28;20453;-72
2021/12/30 05:55:13;;;;;;;2.00;0.80;;;12.60;99.90;;;;;;5010713;28;20537;-72
2021/12/30 05:57:40;;;;;;;2.63;0.90;;;12.50;99.90;;;;;;5010362;28;20482;-72
2021/12/30 06:00:10;;;;;;;3.03;0.83;;;12.60;99.90;;;;;;5010853;28;20481;-73
2021/12/30 06:02:39;;;;;;;1.97;1.00;;;12.60;99.90;;;;;;5010439;28;20456;-73
2021/12/30 06:05:06;;;;;;;2.20;0.83;;;12.60;99.90;;;;;;5010421;28;20482;-72
2021/12/30 06:07:33;;;;;;;2.00;0.90;;;12.60;99.90;;;;;;5010560;28;20501;-72
2021/12/30 06:10:00;;;;;;;2.17;0.90;;;12.60;99.90;;;;;;5014137;28;20518;-72
2021/12/30 06:12:27;;;;;;;2.33;1.20;;;12.60;99.90;;;;;;5014724;28;20526;-72
2021/12/30 06:14:54;;;;;;;1.90;0.80;;;12.50;99.90;;;;;;5014277;28;20443;-71
2021/12/30 06:17:21;;;;;;;2.77;1.23;;;12.50;99.90;;;;;;5015066;28;20469;-71
2021/12/30 06:19:49;;;;;;;2.83;1.23;;;12.50;99.90;;;;;;5014682;28;20442;-72
2021/12/30 06:22:16;;;;;;;2.33;1.03;;;12.50;99.90;;;;;;5014347;28;20537;-72
2021/12/30 06:24:43;;;;;;;3.93;1.40;;;12.50;99.90;;;;;;5015385;28;20478;-71
2021/12/30 06:27:10;;;;;;;2.37;1.07;;;12.50;99.90;;;;;;5017063;28;20987;-71
2021/12/30 06:29:37;;;;;;;2.50;1.27;;;12.40;99.90;;;;;;5016105;28;20541;-70
2021/12/30 06:32:05;;;;;;;2.57;0.90;;;12.40;99.90;;;;;;5015159;28;20962;-72
2021/12/30 06:34:33;;;;;;;2.60;1.20;;;12.40;99.90;;;;;;5015138;28;20459;-74
2021/12/30 06:37:01;;;;;;;3.40;1.33;;;12.40;99.90;;;;;;5014168;28;21014;-71
2021/12/30 06:39:28;;;;;;;2.33;1.67;;;12.30;99.90;;;;;;5016065;28;20553;-73
2021/12/30 06:41:55;;;;;;;2.27;1.20;;;12.30;99.90;;;;;;5016660;28;20464;-71
2021/12/30 06:44:22;;;;;;;3.50;1.17;;;12.30;99.90;;;;;;5015881;28;20488;-72
2021/12/30 06:46:54;;;;;;;3.07;1.10;;;12.30;99.90;;;;;;5013579;28;20473;-72
2021/12/30 06:49:21;;;;;;;3.20;1.20;;;12.30;99.90;;;;;;5013944;28;20449;-71
2021/12/30 06:51:48;;;;;;;2.27;1.10;;;12.30;99.90;;;;;;5013739;28;20545;-71
2021/12/30 06:54:16;;;;;;;2.10;1.20;;;12.30;99.90;;;;;;5014080;28;20518;-71
2021/12/30 06:56:44;;;;;;;2.57;1.40;;;12.30;99.90;;;;;;5014297;28;20541;-70
2021/12/30 06:59:14;;;;;;;2.67;1.27;;;12.30;99.90;;;;;;5014316;28;20460;-69
2021/12/30 07:01:41;;;;;;;3.07;1.20;;;12.30;99.90;;;;;;5014288;28;20984;-72
2021/12/30 07:04:08;;;;;;;2.77;1.17;;;12.30;99.90;;;;;;5014083;28;20482;-72
2021/12/30 07:06:35;;;;;;;2.73;1.30;;;12.30;99.90;;;;;;5013977;28;20478;-72
2021/12/30 07:09:02;;;;;;;3.67;1.50;;;12.30;99.90;;;;;;5013227;28;20939;-70
2021/12/30 07:11:30;;;;;;;2.27;1.20;;;12.30;99.90;;;;;;5013063;28;20454;-70
2021/12/30 07:13:57;;;;;;;2.60;1.20;;;12.30;99.90;;;;;;5013004;28;20460;-71
2021/12/30 07:16:24;;;;;;;4.70;1.70;;;12.30;99.90;;;;;;5012409;28;20542;-71
2021/12/30 07:18:50;;;;;;;3.83;1.33;;;12.30;99.90;;;;;;5012875;28;20463;-70
2021/12/30 07:21:18;;;;;;;2.93;1.47;;;12.40;99.90;;;;;;5011567;28;20446;-72
2021/12/30 07:23:44;;;;;;;2.50;1.40;;;12.30;99.90;;;;;;5012435;28;20817;-72
2021/12/30 07:26:11;;;;;;;1.90;1.10;;;12.40;99.90;;;;;;5012942;28;20473;-71
2021/12/30 07:28:39;;;;;;;2.30;1.00;;;12.40;99.90;;;;;;5012631;28;20445;-71
2021/12/30 07:31:07;;;;;;;2.60;1.13;;;12.40;99.90;;;;;;5013124;28;20455;-71
2021/12/30 07:33:34;;;;;;;2.30;1.10;;;12.40;99.90;;;;;;5012826;28;20482;-73
2021/12/30 07:36:01;;;;;;;2.90;1.10;;;12.50;99.90;;;;;;5012834;28;20497;-72
2021/12/30 07:38:28;;;;;;;2.10;0.97;;;12.50;99.90;;;;;;5013200;28;20438;-71
2021/12/30 07:40:55;;;;;;;6.00;1.40;;;12.50;99.90;;;;;;5013107;28;20454;-71
2021/12/30 07:43:21;;;;;;;2.23;1.20;;;12.50;99.90;;;;;;5012743;28;20533;-72
2021/12/30 07:45:50;;;;;;;3.20;1.50;;;12.50;99.90;;;;;;5012638;28;20482;-72
2021/12/30 07:48:18;;;;;;;2.23;1.20;;;12.50;99.90;;;;;;5013043;28;20438;-71
2021/12/30 07:50:45;;;;;;;2.20;1.10;;;12.50;99.90;;;;;;5013001;28;20455;-71
2021/12/30 07:53:12;;;;;;;2.90;1.23;;;12.50;99.90;;;;;;5012463;28;20956;-72
2021/12/30 07:55:39;;;;;;;3.00;1.50;;;12.60;99.90;;;;;;5011563;28;20936;-71
2021/12/30 07:58:06;;;;;;;2.93;1.20;;;12.60;99.90;;;;;;5011618;28;20443;-74
2021/12/30 08:00:33;;;;;;;2.07;1.00;;;12.60;99.90;;;;;;5011928;28;20466;-72
2021/12/30 08:03:01;;;;;;;2.10;1.07;;;12.60;99.90;;;;;;5012277;28;20466;-71
2021/12/30 08:05:28;;;;;;;2.00;0.87;;;12.60;99.90;;;;;;5011482;28;20574;-74
2021/12/30 08:07:57;;;;;;;2.63;1.23;;;12.60;99.90;;;;;;5011657;28;20478;-71
2021/12/30 08:10:25;;;;;;;2.90;1.10;;;12.60;99.90;;;;;;5011257;28;20569;-70
2021/12/30 08:12:54;;;;;;;2.70;0.90;;;12.60;99.90;;;;;;5011468;28;21007;-72
2021/12/30 08:15:21;;;;;;;5.40;1.00;;;12.70;99.90;;;;;;5011497;28;20450;-72
2021/12/30 08:17:50;;;;;;;3.63;1.30;;;12.70;99.90;;;;;;5011414;28;20468;-71
2021/12/30 08:20:21;;;;;;;2.60;1.60;;;12.70;99.90;;;;;;5011734;28;20446;-71
2021/12/30 08:22:50;;;;;;;1.80;0.80;;;12.70;99.90;;;;;;5011787;28;20451;-71
2021/12/30 08:25:18;;;;;;;3.17;1.27;;;12.80;99.90;;;;;;5011158;28;20478;-73
2021/12/30 08:27:45;;;;;;;8.10;1.63;;;12.80;99.90;;;;;;5011444;28;20521;-73
2021/12/30 08:30:16;;;;;;;2.20;1.30;;;12.80;99.90;;;;;;5011754;28;20456;-71
2021/12/30 08:32:43;;;;;;;2.10;1.00;;;12.90;99.90;;;;;;5011276;28;20453;-71
2021/12/30 08:35:12;;;;;;;2.00;0.93;;;12.90;99.90;;;;;;5011644;28;20826;-71
2021/12/30 08:37:40;;;;;;;1.90;0.90;;;12.90;99.90;;;;;;5011385;28;20992;-71
2021/12/30 08:40:10;;;;;;;2.93;1.10;;;13.00;99.90;;;;;;5010633;28;20446;-71
2021/12/30 08:42:37;;;;;;;2.10;0.90;;;12.90;99.90;;;;;;5010971;28;20481;-71
2021/12/30 08:45:06;;;;;;;2.30;1.00;;;13.00;99.90;;;;;;5010791;28;20486;-71
2021/12/30 08:47:33;;;;;;;1.73;0.77;;;13.10;99.90;;;;;;5011263;28;20568;-71
2021/12/30 08:50:01;;;;;;;1.90;0.87;;;13.00;99.90;;;;;;5010863;28;20450;-72
2021/12/30 08:52:29;;;;;;;2.07;1.00;;;13.00;99.90;;;;;;5011035;28;20450;-70
2021/12/30 08:55:04;;;;;;;1.90;1.00;;;13.00;99.90;;;;;;5009965;28;20449;-73
2021/12/30 08:57:31;;;;;;;2.80;1.10;;;12.90;99.90;;;;;;5010818;28;20510;-72
2021/12/30 08:59:58;;;;;;;2.47;0.83;;;12.90;99.90;;;;;;5010821;28;20458;-71
2021/12/30 09:02:25;;;;;;;5.10;0.90;;;13.10;99.90;;;;;;5009465;28;20441;-71
2021/12/30 09:04:52;;;;;;;2.93;1.17;;;13.20;99.90;;;;;;5008322;28;21026;-71
2021/12/30 09:07:19;;;;;;;4.10;1.20;;;13.30;99.90;;;;;;5010089;28;20478;-73
2021/12/30 09:09:47;;;;;;;2.07;1.17;;;13.40;99.90;;;;;;5011667;28;20928;-71
2021/12/30 09:12:16;;;;;;;2.10;1.00;;;13.60;99.90;;;;;;5009239;28;20450;-72
2021/12/30 09:14:42;;;;;;;2.03;1.07;;;13.60;99.90;;;;;;5009421;28;20545;-71
2021/12/30 09:17:09;;;;;;;2.30;1.10;;;13.70;99.90;;;;;;5009614;28;20995;-72
2021/12/30 09:19:37;;;;;;;2.13;1.27;;;13.80;99.90;;;;;;5009269;28;20450;-72
2021/12/30 09:22:04;;;;;;;1.93;1.00;;;13.90;99.90;;;;;;5008619;28;20559;-72
2021/12/30 09:24:31;;;;;;;1.90;0.90;;;14.00;99.90;;;;;;5007973;28;20458;-71
2021/12/30 09:26:58;;;;;;;2.80;0.80;;;14.10;99.90;;;;;;5008200;28;20529;-70
2021/12/30 09:29:26;;;;;;;2.10;1.00;;;14.10;99.90;;;;;;5008629;28;20486;-71
2021/12/30 09:31:53;;;;;;;2.30;0.90;;;14.20;99.90;;;;;;5008565;28;20451;-70
2021/12/30 09:34:21;;;;;;;1.80;0.83;;;14.30;99.90;;;;;;5008341;28;20458;-71
2021/12/30 09:36:48;;;;;;;3.40;0.87;;;14.30;99.90;;;;;;5008525;28;20963;-69
2021/12/30 09:39:16;;;;;;;2.10;1.00;;;14.40;99.90;;;;;;5009016;28;20480;-70
2021/12/30 09:41:45;;;;;;;2.43;0.90;;;14.40;99.90;;;;;;5008315;28;20443;-70
2021/12/30 09:44:14;;;;;;;2.00;0.80;;;14.40;99.90;;;;;;5007293;28;20549;-70
2021/12/30 09:46:43;;;;;;;5.87;0.80;;;14.40;99.90;;;;;;4997205;28;20482;-69
2021/12/30 09:49:12;;;;;;;2.40;1.20;;;14.40;99.90;;;;;;4998322;28;20495;-70
2021/12/30 09:51:41;;;;;;;2.10;1.00;;;14.50;99.90;;;;;;5006228;28;21098;-69
2021/12/30 09:54:08;;;;;;;2.63;0.93;;;14.50;99.90;;;;;;5003719;28;20461;-69
2021/12/30 09:56:35;;;;;;;2.20;1.00;;;14.60;99.90;;;;;;5005515;28;20489;-70
2021/12/30 09:59:02;;;;;;;2.43;0.97;;;14.70;99.90;;;;;;5002688;28;20458;-69
2021/12/30 10:01:29;;;;;;;3.20;1.40;;;14.80;99.90;;;;;;4999925;28;20504;-69
2021/12/30 10:03:58;;;;;;;2.27;0.80;;;14.90;99.90;;;;;;4996548;28;20454;-69
2021/12/30 10:06:26;;;;;;;3.03;1.70;;;15.00;99.90;;;;;;4994305;28;21057;-69
2021/12/30 10:08:54;;;;;;;2.00;0.90;;;15.20;99.90;;;;;;4999624;28;20446;-70
2021/12/30 10:11:21;;;;;;;3.23;1.10;;;15.30;99.90;;;;;;5000969;28;21015;-69
2021/12/30 10:13:55;;;;;;;1.80;0.70;;;15.40;99.90;;;;;;4999055;28;20447;-68
2021/12/30 10:16:24;;;;;;;2.93;1.00;;;15.50;99.90;;;;;;5003825;28;20474;-68
2021/12/30 10:18:54;;;;;;;2.00;0.70;;;15.70;99.90;;;;;;5000487;28;20458;-70
2021/12/30 10:21:24;;;;;;;2.20;0.60;;;15.80;99.90;;;;;;5001318;28;21102;-70
2021/12/30 10:23:54;;;;;;;2.00;0.80;;;15.80;99.90;;;;;;4999325;28;20455;-69
2021/12/30 10:26:21;;;;;;;1.97;0.97;;;15.80;99.90;;;;;;4999892;28;20492;-72
2021/12/30 10:28:51;;;;;;;1.87;0.73;;;15.90;99.90;;;;;;4995975;28;20451;-68
2021/12/30 10:31:23;;;;;;;2.20;1.20;;;15.90;99.90;;;;;;5001569;28;20450;-69
2021/12/30 10:33:56;;;;;;;1.77;0.70;;;16.00;99.90;;;;;;5002649;28;21008;-68
2021/12/30 10:36:26;;;;;;;1.80;0.77;;;16.10;99.90;;;;;;5003009;28;20474;-69
2021/12/30 10:38:54;;;;;;;2.03;0.80;;;16.20;99.90;;;;;;4998586;28;20816;-69
2021/12/30 10:41:24;;;;;;;2.50;1.40;;;16.40;99.90;;;;;;5001942;28;20458;-70
2021/12/30 10:43:54;;;;;;;1.90;0.80;;;16.60;99.90;;;;;;5003501;28;20459;-69
2021/12/30 10:46:22;;;;;;;2.17;0.97;;;16.80;99.90;;;;;;5003208;28;20486;-69
2021/12/30 10:48:55;;;;;;;3.10;1.40;;;16.90;99.90;;;;;;5005153;28;20450;-71
2021/12/30 10:51:26;;;;;;;2.10;0.97;;;16.90;99.90;;;;;;5003106;28;20454;-70
2021/12/30 10:53:55;;;;;;;2.47;1.40;;;16.80;99.90;;;;;;5000460;28;20461;-69
2021/12/30 10:56:24;;;;;;;2.70;1.47;;;16.70;99.90;;;;;;5008060;28;20470;-70
2021/12/30 10:58:54;;;;;;;2.17;0.93;;;16.60;99.90;;;;;;5012414;28;20454;-69
2021/12/30 11:01:24;;;;;;;2.63;1.40;;;16.50;99.90;;;;;;5010828;28;20454;-69
2021/12/30 11:03:58;;;;;;;3.40;1.83;;;16.60;99.90;;;;;;5008484;28;20612;-68
2021/12/30 11:06:28;;;;;;;5.97;2.47;;;16.60;99.90;;;;;;5009663;28;20575;-69
2021/12/30 11:09:08;;;;;;;3.40;1.30;;;16.50;99.90;;;;;;5004065;28;20464;-69
2021/12/30 11:11:36;;;;;;;2.23;1.17;;;16.50;99.90;;;;;;5007705;28;20456;-71
2021/12/30 11:14:07;;;;;;;2.03;1.00;;;16.60;99.90;;;;;;5009556;28;20851;-69
2021/12/30 11:16:51;;;;;;;1.97;0.97;;;16.70;99.90;;;;;;5004341;28;20470;-69
2021/12/30 11:19:19;;;;;;;2.30;1.10;;;16.90;99.90;;;;;;5009095;28;20484;-70
2021/12/30 11:21:47;;;;;;;3.10;1.07;;;17.20;99.90;;;;;;5007380;28;20454;-70
2021/12/30 11:24:14;;;;;;;2.43;1.20;;;17.20;99.90;;;;;;5009968;28;20465;-70
2021/12/30 11:26:41;;;;;;;2.50;1.20;;;17.30;99.90;;;;;;5005948;28;20490;-70
2021/12/30 11:29:08;;;;;;;4.10;1.00;;;17.30;99.90;;;;;;5008301;28;20539;-70
2021/12/30 11:31:38;;;;;;;2.63;1.03;;;17.20;99.90;;;;;;5003405;28;20453;-70
2021/12/30 11:34:06;;;;;;;2.03;0.70;;;17.20;99.90;;;;;;5007808;28;20462;-70
2021/12/30 11:36:33;;;;;;;2.00;0.80;;;17.20;99.90;;;;;;5007327;28;20465;-70
2021/12/30 11:39:11;;;;;;;2.20;0.90;;;17.10;99.90;;;;;;5007954;28;20454;-70
2021/12/30 11:41:40;;;;;;;1.90;0.80;;;17.00;99.90;;;;;;5001568;28;20458;-71
2021/12/30 11:44:07;;;;;;;1.80;0.70;;;17.10;99.90;;;;;;5003414;28;20450;-70
2021/12/30 11:46:46;;;;;;;3.00;1.50;;;17.30;99.90;;;;;;5008205;28;20485;-69
2021/12/30 11:49:16;;;;;;;1.90;0.80;;;17.50;99.90;;;;;;5005013;28;20461;-72
2021/12/30 11:51:46;;;;;;;1.90;0.60;;;17.60;99.90;;;;;;5004053;28;20453;-69
2021/12/30 11:54:38;;;;;;;1.90;0.70;;;17.60;99.90;;;;;;5003064;28;20454;-70
2021/12/30 11:57:28;;;;;;;1.93;0.73;;;17.80;99.90;;;;;;5006473;28;20608;-69
2021/12/30 11:59:56;;;;;;;2.30;0.80;;;17.90;99.90;;;;;;5005656;28;21042;-71
2021/12/30 12:02:34;;;;;;;3.07;1.10;;;18.00;99.90;;;;;;5007852;28;20505;-70
2021/12/30 12:05:34;;;;;;;1.80;0.63;;;18.00;99.90;;;;;;5008189;28;20474;-69
2021/12/30 12:08:05;;;;;;;1.70;0.60;;;17.90;99.90;;;;;;5007476;28;20470;-69
2021/12/30 12:10:33;;;;;;;3.43;1.20;;;17.80;99.90;;;;;;5005958;28;20447;-71
2021/12/30 12:13:35;;;;;;;2.37;0.73;;;17.70;99.90;;;;;;5002777;28;20448;-72
2021/12/30 12:16:03;;;;;;;2.37;0.50;;;17.70;99.90;;;;;;5008031;28;20475;-68
2021/12/30 12:18:30;;;;;;;1.90;0.70;;;17.70;99.90;;;;;;5009876;28;20446;-70
2021/12/30 12:20:59;;;;;;;1.73;0.60;;;17.70;99.90;;;;;;5006248;28;20446;-70
2021/12/30 12:23:34;;;;;;;1.70;0.50;;;17.80;99.90;;;;;;5007596;28;20526;-71
2021/12/30 12:26:11;;;;;;;1.73;0.60;;;17.70;99.90;;;;;;5000582;28;20493;-69
2021/12/30 12:28:38;;;;;;;1.60;0.50;;;17.40;99.90;;;;;;5004300;28;21080;-68
2021/12/30 12:31:07;;;;;;;2.03;0.87;;;17.20;99.90;;;;;;5007470;28;20466;-70
2021/12/30 12:33:36;;;;;;;1.73;0.60;;;17.00;99.90;;;;;;5000959;28;20453;-68
2021/12/30 12:36:10;;;;;;;1.60;0.50;;;16.70;99.90;;;;;;5000245;28;20986;-69
2021/12/30 12:38:40;;;;;;;1.80;0.70;;;16.60;99.90;;;;;;5002753;28;20453;-69
2021/12/30 12:41:22;;;;;;;1.60;0.50;;;16.50;99.90;;;;;;5005395;28;20882;-69
2021/12/30 12:43:52;;;;;;;1.70;0.60;;;16.40;99.90;;;;;;5007240;28;20450;-71
2021/12/30 12:46:38;;;;;;;1.50;0.43;;;16.30;99.90;;;;;;5007987;28;21011;-69
2021/12/30 12:49:06;;;;;;;1.57;0.50;;;16.30;99.90;;;;;;5005777;28;20450;-71
2021/12/30 12:51:35;;;;;;;1.70;0.60;;;16.20;99.90;;;;;;4989112;28;20451;-69
2021/12/30 12:54:14;;;;;;;1.90;0.50;;;16.20;99.90;;;;;;4989346;28;20454;-69